San Leon, Texas
Current Conditions -  °F | °C
As of 8:50 PM on Monday 20 Oct 2014 (Local Time) from KEFD Reporting Station
Scattered Clouds Scattered Clouds  
Wind Chill: 73°   Ceiling: Unl
Heat Index: 73°   Visibility: 10mi
Dew Point: 63°   Wind: 5mph
Humidity: 69%   Direction: 30°NNE
Pressure: 30.01"   Gusts: NA
Location:  29.4598°N, 95.0288°W
Report Text: KEFD 210150Z 03004KT 10SM FEW030 SCT250 23/17 A3001
Loading
Personal Weather Stations






























Interactive Weather Map New forecast layout! Learn more

10-Day Weather Forecast

Advertisements
Track Severe Weather on mobile